Grinders, Tennessee
Current Conditions -  °F | °C
As of 12:15 PM on Thursday 18 Dec 2014 (Local Time) from KPVE Reporting Station
Overcast Overcast  
Wind Chill: 35°   Ceiling: 1200
Heat Index: 39°   Visibility: 10mi
Dew Point: 34°   Wind: 6mph
Humidity: 81%   Direction: 40°NE
Pressure: 30.21"   Gusts: NA
Location:  35.7514°N, 87.5392°W
Report Text: KPVE 181815Z AUTO 04005KT 10SM BKN012 OVC050 04/01 A3021 RMK
Loading
Personal Weather Stations






























Interactive Weather Map New forecast layout! Learn more

10-Day Weather Forecast

Advertisements
Track Severe Weather on mobile